sensor_id;sensor_type;location;lat;lon;timestamp;P1;durP1;ratioP1;P2;durP2;ratioP2
37641;SDS011;23486;51.956;5.888;2023-10-13T00:01:31;29.52;;;19.65;;
37641;SDS011;23486;51.956;5.888;2023-10-13T00:03:56;39.00;;;24.52;;
37641;SDS011;23486;51.956;5.888;2023-10-13T00:06:22;30.73;;;20.23;;
37641;SDS011;23486;51.956;5.888;2023-10-13T00:08:47;27.00;;;18.02;;
37641;SDS011;23486;51.956;5.888;2023-10-13T00:11:13;27.13;;;18.15;;
37641;SDS011;23486;51.956;5.888;2023-10-13T00:13:39;26.00;;;18.70;;
37641;SDS011;23486;51.956;5.888;2023-10-13T00:16:08;28.63;;;18.92;;
37641;SDS011;23486;51.956;5.888;2023-10-13T00:18:43;24.15;;;16.05;;
37641;SDS011;23486;51.956;5.888;2023-10-13T00:21:09;26.17;;;17.20;;
37641;SDS011;23486;51.956;5.888;2023-10-13T00:23:38;25.73;;;15.80;;
37641;SDS011;23486;51.956;5.888;2023-10-13T00:26:08;26.25;;;16.15;;
37641;SDS011;23486;51.956;5.888;2023-10-13T00:28:34;22.95;;;15.95;;
37641;SDS011;23486;51.956;5.888;2023-10-13T00:31:00;26.90;;;17.95;;
37641;SDS011;23486;51.956;5.888;2023-10-13T00:33:36;23.77;;;16.10;;
37641;SDS011;23486;51.956;5.888;2023-10-13T00:36:03;23.38;;;14.68;;
37641;SDS011;23486;51.956;5.888;2023-10-13T00:38:30;22.52;;;15.82;;
37641;SDS011;23486;51.956;5.888;2023-10-13T00:40:55;26.75;;;16.63;;
37641;SDS011;23486;51.956;5.888;2023-10-13T00:43:28;25.20;;;16.42;;
37641;SDS011;23486;51.956;5.888;2023-10-13T00:45:57;21.08;;;13.90;;
37641;SDS011;23486;51.956;5.888;2023-10-13T00:48:28;21.98;;;14.20;;
37641;SDS011;23486;51.956;5.888;2023-10-13T00:50:59;21.23;;;13.70;;
37641;SDS011;23486;51.956;5.888;2023-10-13T00:53:28;23.60;;;14.65;;
37641;SDS011;23486;51.956;5.888;2023-10-13T00:56:02;22.00;;;14.55;;
37641;SDS011;23486;51.956;5.888;2023-10-13T00:58:35;22.80;;;14.95;;
37641;SDS011;23486;51.956;5.888;2023-10-13T01:01:05;20.17;;;14.73;;
37641;SDS011;23486;51.956;5.888;2023-10-13T01:03:46;22.88;;;15.23;;
37641;SDS011;23486;51.956;5.888;2023-10-13T01:06:14;21.73;;;14.23;;
37641;SDS011;23486;51.956;5.888;2023-10-13T01:08:41;21.52;;;14.52;;
37641;SDS011;23486;51.956;5.888;2023-10-13T01:11:09;22.00;;;14.00;;
37641;SDS011;23486;51.956;5.888;2023-10-13T01:13:35;21.98;;;13.80;;
37641;SDS011;23486;51.956;5.888;2023-10-13T01:16:02;21.58;;;13.38;;
37641;SDS011;23486;51.956;5.888;2023-10-13T01:18:29;20.55;;;13.15;;
37641;SDS011;23486;51.956;5.888;2023-10-13T01:20:55;19.58;;;14.25;;
37641;SDS011;23486;51.956;5.888;2023-10-13T01:23:24;20.00;;;14.10;;
37641;SDS011;23486;51.956;5.888;2023-10-13T01:25:54;22.92;;;14.18;;
37641;SDS011;23486;51.956;5.888;2023-10-13T01:28:21;22.77;;;15.80;;
37641;SDS011;23486;51.956;5.888;2023-10-13T01:30:47;23.05;;;14.82;;
37641;SDS011;23486;51.956;5.888;2023-10-13T01:33:17;23.25;;;12.68;;
37641;SDS011;23486;51.956;5.888;2023-10-13T01:35:51;20.75;;;14.40;;
37641;SDS011;23486;51.956;5.888;2023-10-13T01:38:18;19.92;;;15.15;;
37641;SDS011;23486;51.956;5.888;2023-10-13T01:40:43;20.42;;;12.70;;
37641;SDS011;23486;51.956;5.888;2023-10-13T01:43:09;20.45;;;13.90;;
37641;SDS011;23486;51.956;5.888;2023-10-13T01:45:36;20.50;;;13.60;;
37641;SDS011;23486;51.956;5.888;2023-10-13T01:48:11;18.05;;;12.88;;
37641;SDS011;23486;51.956;5.888;2023-10-13T01:50:40;17.13;;;12.90;;
37641;SDS011;23486;51.956;5.888;2023-10-13T01:53:07;20.05;;;12.63;;
37641;SDS011;23486;51.956;5.888;2023-10-13T01:55:39;18.95;;;11.60;;
37641;SDS011;23486;51.956;5.888;2023-10-13T01:58:13;17.02;;;12.57;;
37641;SDS011;23486;51.956;5.888;2023-10-13T02:00:43;16.33;;;10.95;;
37641;SDS011;23486;51.956;5.888;2023-10-13T02:03:10;21.35;;;12.27;;
37641;SDS011;23486;51.956;5.888;2023-10-13T02:05:43;18.67;;;11.52;;
37641;SDS011;23486;51.956;5.888;2023-10-13T02:08:17;17.70;;;12.05;;
37641;SDS011;23486;51.956;5.888;2023-10-13T02:10:56;15.43;;;11.38;;
37641;SDS011;23486;51.956;5.888;2023-10-13T02:13:23;17.33;;;12.32;;
37641;SDS011;23486;51.956;5.888;2023-10-13T02:15:54;18.45;;;12.93;;
37641;SDS011;23486;51.956;5.888;2023-10-13T02:18:27;18.15;;;11.32;;
37641;SDS011;23486;51.956;5.888;2023-10-13T02:20:53;16.33;;;11.27;;
37641;SDS011;23486;51.956;5.888;2023-10-13T02:23:29;15.63;;;9.60;;
37641;SDS011;23486;51.956;5.888;2023-10-13T02:25:55;16.33;;;10.43;;
37641;SDS011;23486;51.956;5.888;2023-10-13T02:28:29;12.23;;;8.65;;
37641;SDS011;23486;51.956;5.888;2023-10-13T02:31:01;17.25;;;9.70;;
37641;SDS011;23486;51.956;5.888;2023-10-13T02:33:28;16.75;;;10.18;;
37641;SDS011;23486;51.956;5.888;2023-10-13T02:35:58;15.68;;;9.93;;
37641;SDS011;23486;51.956;5.888;2023-10-13T02:38:25;13.82;;;9.25;;
37641;SDS011;23486;51.956;5.888;2023-10-13T02:41:10;15.95;;;8.90;;
37641;SDS011;23486;51.956;5.888;2023-10-13T02:43:37;16.27;;;8.73;;
37641;SDS011;23486;51.956;5.888;2023-10-13T02:46:03;12.35;;;8.70;;
37641;SDS011;23486;51.956;5.888;2023-10-13T02:48:29;19.50;;;7.85;;
37641;SDS011;23486;51.956;5.888;2023-10-13T02:51:04;12.65;;;8.25;;
37641;SDS011;23486;51.956;5.888;2023-10-13T02:53:40;13.93;;;8.48;;
37641;SDS011;23486;51.956;5.888;2023-10-13T02:56:06;11.13;;;7.05;;
37641;SDS011;23486;51.956;5.888;2023-10-13T02:58:32;15.98;;;8.00;;
37641;SDS011;23486;51.956;5.888;2023-10-13T03:01:19;13.05;;;7.95;;
37641;SDS011;23486;51.956;5.888;2023-10-13T03:03:49;14.07;;;7.47;;
37641;SDS011;23486;51.956;5.888;2023-10-13T03:06:19;11.55;;;7.35;;
37641;SDS011;23486;51.956;5.888;2023-10-13T03:08:48;11.50;;;7.53;;
37641;SDS011;23486;51.956;5.888;2023-10-13T03:11:14;12.70;;;6.60;;
37641;SDS011;23486;51.956;5.888;2023-10-13T03:13:46;12.77;;;6.80;;
37641;SDS011;23486;51.956;5.888;2023-10-13T03:16:15;10.20;;;6.93;;
37641;SDS011;23486;51.956;5.888;2023-10-13T03:18:44;8.57;;;6.18;;
37641;SDS011;23486;51.956;5.888;2023-10-13T03:21:24;9.48;;;6.28;;
37641;SDS011;23486;51.956;5.888;2023-10-13T03:23:55;9.60;;;5.57;;
37641;SDS011;23486;51.956;5.888;2023-10-13T03:26:21;10.70;;;5.88;;
37641;SDS011;23486;51.956;5.888;2023-10-13T03:28:47;10.13;;;5.57;;
37641;SDS011;23486;51.956;5.888;2023-10-13T03:31:18;15.07;;;5.60;;
37641;SDS011;23486;51.956;5.888;2023-10-13T03:33:44;10.80;;;6.32;;
37641;SDS011;23486;51.956;5.888;2023-10-13T03:36:11;12.02;;;5.82;;
37641;SDS011;23486;51.956;5.888;2023-10-13T03:38:58;13.07;;;6.15;;
37641;SDS011;23486;51.956;5.888;2023-10-13T03:41:23;10.57;;;5.25;;
37641;SDS011;23486;51.956;5.888;2023-10-13T03:43:55;9.73;;;5.70;;
37641;SDS011;23486;51.956;5.888;2023-10-13T03:46:38;9.38;;;5.40;;
37641;SDS011;23486;51.956;5.888;2023-10-13T03:49:06;14.43;;;6.90;;
37641;SDS011;23486;51.956;5.888;2023-10-13T03:51:37;12.98;;;7.28;;
37641;SDS011;23486;51.956;5.888;2023-10-13T03:54:05;16.92;;;7.68;;
37641;SDS011;23486;51.956;5.888;2023-10-13T03:56:34;15.45;;;8.75;;
37641;SDS011;23486;51.956;5.888;2023-10-13T03:59:06;12.90;;;8.77;;
37641;SDS011;23486;51.956;5.888;2023-10-13T04:01:33;19.25;;;10.57;;
37641;SDS011;23486;51.956;5.888;2023-10-13T04:04:10;18.52;;;10.10;;
37641;SDS011;23486;51.956;5.888;2023-10-13T04:06:37;18.10;;;10.55;;
37641;SDS011;23486;51.956;5.888;2023-10-13T04:09:15;18.38;;;11.10;;
37641;SDS011;23486;51.956;5.888;2023-10-13T04:12:04;19.58;;;11.13;;
37641;SDS011;23486;51.956;5.888;2023-10-13T04:14:38;16.45;;;10.77;;
37641;SDS011;23486;51.956;5.888;2023-10-13T04:17:23;21.23;;;11.40;;
37641;SDS011;23486;51.956;5.888;2023-10-13T04:19:51;17.65;;;10.80;;
37641;SDS011;23486;51.956;5.888;2023-10-13T04:22:41;18.83;;;10.55;;
37641;SDS011;23486;51.956;5.888;2023-10-13T04:27:53;17.10;;;10.15;;
37641;SDS011;23486;51.956;5.888;2023-10-13T04:30:42;15.45;;;9.00;;
37641;SDS011;23486;51.956;5.888;2023-10-13T04:33:21;16.55;;;10.05;;
37641;SDS011;23486;51.956;5.888;2023-10-13T04:38:50;16.52;;;10.43;;
37641;SDS011;23486;51.956;5.888;2023-10-13T04:41:35;19.42;;;10.95;;
37641;SDS011;23486;51.956;5.888;2023-10-13T04:44:11;21.15;;;11.05;;
37641;SDS011;23486;51.956;5.888;2023-10-13T04:46:57;20.50;;;12.15;;
37641;SDS011;23486;51.956;5.888;2023-10-13T04:49:27;22.05;;;12.93;;
37641;SDS011;23486;51.956;5.888;2023-10-13T04:52:00;21.52;;;12.85;;
37641;SDS011;23486;51.956;5.888;2023-10-13T04:54:33;24.15;;;14.60;;
37641;SDS011;23486;51.956;5.888;2023-10-13T04:57:19;26.92;;;14.00;;
37641;SDS011;23486;51.956;5.888;2023-10-13T05:00:05;24.95;;;13.57;;
37641;SDS011;23486;51.956;5.888;2023-10-13T05:02:34;26.10;;;15.63;;
37641;SDS011;23486;51.956;5.888;2023-10-13T05:05:01;25.75;;;14.45;;
37641;SDS011;23486;51.956;5.888;2023-10-13T05:07:30;28.88;;;15.93;;
37641;SDS011;23486;51.956;5.888;2023-10-13T05:10:14;24.38;;;16.20;;
37641;SDS011;23486;51.956;5.888;2023-10-13T05:12:58;32.97;;;19.02;;
37641;SDS011;23486;51.956;5.888;2023-10-13T05:15:43;33.45;;;20.90;;
37641;SDS011;23486;51.956;5.888;2023-10-13T05:18:31;34.78;;;20.80;;
37641;SDS011;23486;51.956;5.888;2023-10-13T05:21:16;30.70;;;19.75;;
37641;SDS011;23486;51.956;5.888;2023-10-13T05:24:00;30.67;;;18.75;;
37641;SDS011;23486;51.956;5.888;2023-10-13T05:26:44;28.30;;;17.60;;
37641;SDS011;23486;51.956;5.888;2023-10-13T05:29:28;27.58;;;17.20;;
37641;SDS011;23486;51.956;5.888;2023-10-13T05:32:12;25.60;;;16.50;;
37641;SDS011;23486;51.956;5.888;2023-10-13T05:34:56;25.90;;;16.17;;
37641;SDS011;23486;51.956;5.888;2023-10-13T05:37:40;25.45;;;15.45;;
37641;SDS011;23486;51.956;5.888;2023-10-13T05:40:24;25.52;;;15.48;;
37641;SDS011;23486;51.956;5.888;2023-10-13T05:43:08;21.92;;;14.20;;
37641;SDS011;23486;51.956;5.888;2023-10-13T05:45:52;24.50;;;14.00;;
37641;SDS011;23486;51.956;5.888;2023-10-13T05:48:38;19.52;;;13.00;;
37641;SDS011;23486;51.956;5.888;2023-10-13T05:51:22;22.45;;;13.23;;
37641;SDS011;23486;51.956;5.888;2023-10-13T05:54:01;17.50;;;10.98;;
37641;SDS011;23486;51.956;5.888;2023-10-13T05:56:42;17.88;;;11.40;;
37641;SDS011;23486;51.956;5.888;2023-10-13T05:59:28;18.20;;;9.98;;
37641;SDS011;23486;51.956;5.888;2023-10-13T06:02:14;16.20;;;10.35;;
37641;SDS011;23486;51.956;5.888;2023-10-13T06:05:02;15.30;;;9.93;;
37641;SDS011;23486;51.956;5.888;2023-10-13T06:07:51;16.30;;;9.80;;
37641;SDS011;23486;51.956;5.888;2023-10-13T06:10:36;13.85;;;9.57;;
37641;SDS011;23486;51.956;5.888;2023-10-13T06:13:20;14.95;;;9.20;;
37641;SDS011;23486;51.956;5.888;2023-10-13T06:16:08;16.42;;;10.15;;
37641;SDS011;23486;51.956;5.888;2023-10-13T06:18:53;17.90;;;10.50;;
37641;SDS011;23486;51.956;5.888;2023-10-13T06:21:42;16.48;;;10.13;;
37641;SDS011;23486;51.956;5.888;2023-10-13T06:24:27;14.20;;;9.48;;
37641;SDS011;23486;51.956;5.888;2023-10-13T06:27:11;14.10;;;9.05;;
37641;SDS011;23486;51.956;5.888;2023-10-13T06:29:56;13.07;;;8.73;;
37641;SDS011;23486;51.956;5.888;2023-10-13T06:32:22;14.43;;;8.65;;
37641;SDS011;23486;51.956;5.888;2023-10-13T06:34:53;14.05;;;8.73;;
37641;SDS011;23486;51.956;5.888;2023-10-13T06:37:43;14.43;;;8.27;;
37641;SDS011;23486;51.956;5.888;2023-10-13T06:40:10;12.25;;;8.25;;
37641;SDS011;23486;51.956;5.888;2023-10-13T06:42:50;13.30;;;7.82;;
37641;SDS011;23486;51.956;5.888;2023-10-13T06:45:18;11.80;;;7.90;;
37641;SDS011;23486;51.956;5.888;2023-10-13T06:47:44;8.70;;;5.93;;
37641;SDS011;23486;51.956;5.888;2023-10-13T06:50:13;8.68;;;6.60;;
37641;SDS011;23486;51.956;5.888;2023-10-13T06:52:47;10.75;;;6.88;;
37641;SDS011;23486;51.956;5.888;2023-10-13T06:55:13;12.68;;;6.88;;
37641;SDS011;23486;51.956;5.888;2023-10-13T06:57:42;13.75;;;7.07;;
37641;SDS011;23486;51.956;5.888;2023-10-13T07:00:09;12.32;;;6.35;;
37641;SDS011;23486;51.956;5.888;2023-10-13T07:02:47;13.35;;;7.53;;
37641;SDS011;23486;51.956;5.888;2023-10-13T07:05:16;10.68;;;6.65;;
37641;SDS011;23486;51.956;5.888;2023-10-13T07:07:43;12.40;;;6.35;;
37641;SDS011;23486;51.956;5.888;2023-10-13T07:10:12;10.50;;;6.65;;
37641;SDS011;23486;51.956;5.888;2023-10-13T07:12:38;10.60;;;6.80;;
37641;SDS011;23486;51.956;5.888;2023-10-13T07:15:08;12.48;;;7.22;;
37641;SDS011;23486;51.956;5.888;2023-10-13T07:17:47;10.40;;;7.13;;
37641;SDS011;23486;51.956;5.888;2023-10-13T07:20:19;10.93;;;6.90;;
37641;SDS011;23486;51.956;5.888;2023-10-13T07:22:52;13.13;;;7.80;;
37641;SDS011;23486;51.956;5.888;2023-10-13T07:25:27;12.75;;;8.13;;
37641;SDS011;23486;51.956;5.888;2023-10-13T07:28:02;10.70;;;7.30;;
37641;SDS011;23486;51.956;5.888;2023-10-13T07:30:29;11.68;;;7.72;;
37641;SDS011;23486;51.956;5.888;2023-10-13T07:33:04;14.50;;;7.95;;
37641;SDS011;23486;51.956;5.888;2023-10-13T07:35:31;12.57;;;7.57;;
37641;SDS011;23486;51.956;5.888;2023-10-13T07:38:00;11.73;;;7.93;;
37641;SDS011;23486;51.956;5.888;2023-10-13T07:40:27;11.95;;;7.68;;
37641;SDS011;23486;51.956;5.888;2023-10-13T07:42:52;9.27;;;6.72;;
37641;SDS011;23486;51.956;5.888;2023-10-13T07:45:38;13.57;;;7.80;;
37641;SDS011;23486;51.956;5.888;2023-10-13T07:48:06;12.43;;;8.50;;
37641;SDS011;23486;51.956;5.888;2023-10-13T07:53:47;16.02;;;7.18;;
37641;SDS011;23486;51.956;5.888;2023-10-13T07:56:18;15.27;;;8.43;;
37641;SDS011;23486;51.956;5.888;2023-10-13T07:58:44;12.27;;;6.63;;
37641;SDS011;23486;51.956;5.888;2023-10-13T08:01:31;10.27;;;7.30;;
37641;SDS011;23486;51.956;5.888;2023-10-13T08:03:57;20.20;;;9.43;;
37641;SDS011;23486;51.956;5.888;2023-10-13T08:06:41;14.18;;;7.53;;
37641;SDS011;23486;51.956;5.888;2023-10-13T08:09:08;14.82;;;7.88;;
37641;SDS011;23486;51.956;5.888;2023-10-13T08:11:37;13.00;;;8.20;;
37641;SDS011;23486;51.956;5.888;2023-10-13T08:14:04;13.55;;;7.40;;
37641;SDS011;23486;51.956;5.888;2023-10-13T08:16:37;14.50;;;7.05;;
37641;SDS011;23486;51.956;5.888;2023-10-13T08:19:23;19.45;;;7.47;;
37641;SDS011;23486;51.956;5.888;2023-10-13T08:21:58;14.82;;;7.18;;
37641;SDS011;23486;51.956;5.888;2023-10-13T08:24:27;13.13;;;7.40;;
37641;SDS011;23486;51.956;5.888;2023-10-13T08:26:54;12.20;;;7.72;;
37641;SDS011;23486;51.956;5.888;2023-10-13T08:29:43;13.13;;;8.35;;
37641;SDS011;23486;51.956;5.888;2023-10-13T08:32:19;13.10;;;7.40;;
37641;SDS011;23486;51.956;5.888;2023-10-13T08:37:21;11.82;;;6.82;;
37641;SDS011;23486;51.956;5.888;2023-10-13T08:39:53;15.25;;;8.57;;
37641;SDS011;23486;51.956;5.888;2023-10-13T08:42:27;15.50;;;7.13;;
37641;SDS011;23486;51.956;5.888;2023-10-13T08:47:48;13.88;;;7.80;;
37641;SDS011;23486;51.956;5.888;2023-10-13T08:50:45;12.30;;;6.85;;
37641;SDS011;23486;51.956;5.888;2023-10-13T08:53:24;16.23;;;8.32;;
37641;SDS011;23486;51.956;5.888;2023-10-13T08:58:33;10.48;;;6.38;;
37641;SDS011;23486;51.956;5.888;2023-10-13T09:01:18;10.38;;;5.88;;
37641;SDS011;23486;51.956;5.888;2023-10-13T09:04:16;11.82;;;7.07;;
37641;SDS011;23486;51.956;5.888;2023-10-13T09:06:44;13.07;;;6.05;;
37641;SDS011;23486;51.956;5.888;2023-10-13T09:09:18;9.35;;;5.35;;
37641;SDS011;23486;51.956;5.888;2023-10-13T09:11:59;12.07;;;6.35;;
37641;SDS011;23486;51.956;5.888;2023-10-13T09:14:35;11.88;;;5.15;;
37641;SDS011;23486;51.956;5.888;2023-10-13T09:17:06;11.23;;;5.72;;
37641;SDS011;23486;51.956;5.888;2023-10-13T09:19:42;17.80;;;6.50;;
37641;SDS011;23486;51.956;5.888;2023-10-13T09:22:27;9.98;;;5.63;;
37641;SDS011;23486;51.956;5.888;2023-10-13T09:25:02;13.25;;;6.10;;
37641;SDS011;23486;51.956;5.888;2023-10-13T09:27:38;10.77;;;5.40;;
37641;SDS011;23486;51.956;5.888;2023-10-13T09:30:04;9.93;;;5.78;;
37641;SDS011;23486;51.956;5.888;2023-10-13T09:32:46;14.85;;;6.43;;
37641;SDS011;23486;51.956;5.888;2023-10-13T09:35:19;10.45;;;5.50;;
37641;SDS011;23486;51.956;5.888;2023-10-13T09:37:52;12.15;;;5.80;;
37641;SDS011;23486;51.956;5.888;2023-10-13T09:40:21;12.73;;;6.50;;
37641;SDS011;23486;51.956;5.888;2023-10-13T09:42:52;10.18;;;5.30;;
37641;SDS011;23486;51.956;5.888;2023-10-13T09:45:31;10.65;;;5.45;;
37641;SDS011;23486;51.956;5.888;2023-10-13T09:48:01;12.65;;;5.38;;
37641;SDS011;23486;51.956;5.888;2023-10-13T09:50:41;12.20;;;4.53;;
37641;SDS011;23486;51.956;5.888;2023-10-13T09:53:11;11.88;;;4.78;;
37641;SDS011;23486;51.956;5.888;2023-10-13T09:55:43;12.52;;;6.40;;
37641;SDS011;23486;51.956;5.888;2023-10-13T09:58:12;12.68;;;5.15;;
37641;SDS011;23486;51.956;5.888;2023-10-13T10:00:46;14.20;;;5.90;;
37641;SDS011;23486;51.956;5.888;2023-10-13T10:03:22;16.83;;;5.60;;
37641;SDS011;23486;51.956;5.888;2023-10-13T10:05:59;14.45;;;5.43;;
37641;SDS011;23486;51.956;5.888;2023-10-13T10:08:28;15.23;;;5.78;;
37641;SDS011;23486;51.956;5.888;2023-10-13T10:17:09;9.02;;;4.75;;
37641;SDS011;23486;51.956;5.888;2023-10-13T10:19:24;10.27;;;5.45;;
37641;SDS011;23486;51.956;5.888;2023-10-13T10:22:00;10.77;;;5.40;;
37641;SDS011;23486;51.956;5.888;2023-10-13T10:24:55;12.48;;;6.22;;
37641;SDS011;23486;51.956;5.888;2023-10-13T10:27:31;10.13;;;5.22;;
37641;SDS011;23486;51.956;5.888;2023-10-13T10:29:58;13.27;;;6.15;;
37641;SDS011;23486;51.956;5.888;2023-10-13T10:32:34;18.05;;;5.93;;
37641;SDS011;23486;51.956;5.888;2023-10-13T10:35:06;12.20;;;4.72;;
37641;SDS011;23486;51.956;5.888;2023-10-13T10:37:34;11.10;;;4.72;;
37641;SDS011;23486;51.956;5.888;2023-10-13T10:40:06;11.27;;;5.10;;
37641;SDS011;23486;51.956;5.888;2023-10-13T10:42:33;8.68;;;4.70;;
37641;SDS011;23486;51.956;5.888;2023-10-13T10:44:59;9.50;;;4.90;;
37641;SDS011;23486;51.956;5.888;2023-10-13T10:47:31;7.20;;;4.23;;
37641;SDS011;23486;51.956;5.888;2023-10-13T10:50:03;9.77;;;5.85;;
37641;SDS011;23486;51.956;5.888;2023-10-13T10:52:43;11.98;;;4.53;;
37641;SDS011;23486;51.956;5.888;2023-10-13T10:55:08;10.07;;;5.15;;
37641;SDS011;23486;51.956;5.888;2023-10-13T10:57:38;10.65;;;5.00;;
37641;SDS011;23486;51.956;5.888;2023-10-13T11:00:17;14.27;;;5.95;;
37641;SDS011;23486;51.956;5.888;2023-10-13T11:02:55;10.82;;;4.95;;
37641;SDS011;23486;51.956;5.888;2023-10-13T11:05:21;11.88;;;5.07;;
37641;SDS011;23486;51.956;5.888;2023-10-13T11:07:49;11.50;;;5.65;;
37641;SDS011;23486;51.956;5.888;2023-10-13T11:10:18;12.32;;;5.43;;
37641;SDS011;23486;51.956;5.888;2023-10-13T11:12:56;10.13;;;4.90;;
37641;SDS011;23486;51.956;5.888;2023-10-13T11:15:42;9.30;;;5.13;;
37641;SDS011;23486;51.956;5.888;2023-10-13T11:18:09;14.88;;;5.63;;
37641;SDS011;23486;51.956;5.888;2023-10-13T11:20:42;10.67;;;5.40;;
37641;SDS011;23486;51.956;5.888;2023-10-13T11:23:11;12.95;;;5.90;;
37641;SDS011;23486;51.956;5.888;2023-10-13T11:25:37;18.55;;;6.07;;
37641;SDS011;23486;51.956;5.888;2023-10-13T11:30:59;10.82;;;4.78;;
37641;SDS011;23486;51.956;5.888;2023-10-13T11:33:29;14.07;;;5.75;;
37641;SDS011;23486;51.956;5.888;2023-10-13T11:35:56;15.38;;;5.78;;
37641;SDS011;23486;51.956;5.888;2023-10-13T11:40:53;10.73;;;6.00;;
37641;SDS011;23486;51.956;5.888;2023-10-13T11:43:37;16.83;;;6.72;;
37641;SDS011;23486;51.956;5.888;2023-10-13T11:46:12;11.15;;;4.97;;
37641;SDS011;23486;51.956;5.888;2023-10-13T11:48:40;11.60;;;5.43;;
37641;SDS011;23486;51.956;5.888;2023-10-13T11:51:10;14.05;;;5.55;;
37641;SDS011;23486;51.956;5.888;2023-10-13T11:53:43;10.18;;;5.22;;
37641;SDS011;23486;51.956;5.888;2023-10-13T11:56:17;10.82;;;5.10;;
37641;SDS011;23486;51.956;5.888;2023-10-13T11:58:46;12.05;;;5.95;;
37641;SDS011;23486;51.956;5.888;2023-10-13T12:01:12;12.07;;;5.28;;
37641;SDS011;23486;51.956;5.888;2023-10-13T12:03:38;13.15;;;6.47;;
37641;SDS011;23486;51.956;5.888;2023-10-13T12:06:39;11.48;;;5.22;;
37641;SDS011;23486;51.956;5.888;2023-10-13T12:09:06;10.43;;;5.68;;
37641;SDS011;23486;51.956;5.888;2023-10-13T12:11:45;11.57;;;6.35;;
37641;SDS011;23486;51.956;5.888;2023-10-13T12:14:11;11.00;;;6.10;;
37641;SDS011;23486;51.956;5.888;2023-10-13T12:16:47;13.85;;;5.72;;
37641;SDS011;23486;51.956;5.888;2023-10-13T12:19:16;16.00;;;5.72;;
37641;SDS011;23486;51.956;5.888;2023-10-13T12:21:43;15.57;;;6.65;;
37641;SDS011;23486;51.956;5.888;2023-10-13T12:24:09;17.42;;;6.07;;
37641;SDS011;23486;51.956;5.888;2023-10-13T12:26:48;11.20;;;5.93;;
37641;SDS011;23486;51.956;5.888;2023-10-13T12:29:20;17.40;;;5.63;;
37641;SDS011;23486;51.956;5.888;2023-10-13T12:31:48;15.05;;;6.13;;
37641;SDS011;23486;51.956;5.888;2023-10-13T12:34:30;18.93;;;5.37;;
37641;SDS011;23486;51.956;5.888;2023-10-13T12:37:16;16.20;;;6.32;;
37641;SDS011;23486;51.956;5.888;2023-10-13T12:40:00;19.75;;;6.75;;
37641;SDS011;23486;51.956;5.888;2023-10-13T12:42:44;14.60;;;6.10;;
37641;SDS011;23486;51.956;5.888;2023-10-13T12:45:27;16.70;;;6.40;;
37641;SDS011;23486;51.956;5.888;2023-10-13T12:48:12;13.93;;;5.65;;
37641;SDS011;23486;51.956;5.888;2023-10-13T12:50:56;12.35;;;5.93;;
37641;SDS011;23486;51.956;5.888;2023-10-13T12:53:44;11.25;;;5.80;;
37641;SDS011;23486;51.956;5.888;2023-10-13T12:56:14;11.88;;;5.28;;
37641;SDS011;23486;51.956;5.888;2023-10-13T12:58:40;12.38;;;5.63;;
37641;SDS011;23486;51.956;5.888;2023-10-13T13:01:07;14.93;;;5.75;;
37641;SDS011;23486;51.956;5.888;2023-10-13T13:03:32;11.90;;;5.15;;
37641;SDS011;23486;51.956;5.888;2023-10-13T13:06:00;12.70;;;5.70;;
37641;SDS011;23486;51.956;5.888;2023-10-13T13:08:32;11.95;;;5.57;;
37641;SDS011;23486;51.956;5.888;2023-10-13T13:11:00;11.90;;;5.72;;
37641;SDS011;23486;51.956;5.888;2023-10-13T13:13:28;10.82;;;5.63;;
37641;SDS011;23486;51.956;5.888;2023-10-13T13:15:55;11.63;;;5.18;;
37641;SDS011;23486;51.956;5.888;2023-10-13T13:18:21;10.93;;;4.57;;
37641;SDS011;23486;51.956;5.888;2023-10-13T13:20:47;11.27;;;5.35;;
37641;SDS011;23486;51.956;5.888;2023-10-13T13:23:18;11.00;;;4.60;;
37641;SDS011;23486;51.956;5.888;2023-10-13T13:25:45;11.32;;;4.40;;
37641;SDS011;23486;51.956;5.888;2023-10-13T13:28:11;12.75;;;4.35;;
37641;SDS011;23486;51.956;5.888;2023-10-13T13:30:43;10.63;;;4.80;;
37641;SDS011;23486;51.956;5.888;2023-10-13T13:33:09;12.27;;;4.88;;
37641;SDS011;23486;51.956;5.888;2023-10-13T13:35:39;9.27;;;4.15;;
37641;SDS011;23486;51.956;5.888;2023-10-13T13:38:07;9.85;;;4.53;;
37641;SDS011;23486;51.956;5.888;2023-10-13T13:40:57;11.00;;;4.60;;
37641;SDS011;23486;51.956;5.888;2023-10-13T13:43:24;10.95;;;4.43;;
37641;SDS011;23486;51.956;5.888;2023-10-13T13:46:17;13.65;;;4.97;;
37641;SDS011;23486;51.956;5.888;2023-10-13T13:48:44;10.20;;;4.38;;
37641;SDS011;23486;51.956;5.888;2023-10-13T13:51:13;12.38;;;4.65;;
37641;SDS011;23486;51.956;5.888;2023-10-13T13:53:51;11.95;;;5.03;;
37641;SDS011;23486;51.956;5.888;2023-10-13T13:56:17;8.85;;;4.70;;
37641;SDS011;23486;51.956;5.888;2023-10-13T13:58:44;9.73;;;4.05;;
37641;SDS011;23486;51.956;5.888;2023-10-13T14:01:15;8.85;;;3.85;;
37641;SDS011;23486;51.956;5.888;2023-10-13T14:03:43;9.90;;;3.67;;
37641;SDS011;23486;51.956;5.888;2023-10-13T14:06:14;9.95;;;3.92;;
37641;SDS011;23486;51.956;5.888;2023-10-13T14:08:54;11.95;;;4.60;;
37641;SDS011;23486;51.956;5.888;2023-10-13T14:11:21;15.10;;;5.45;;
37641;SDS011;23486;51.956;5.888;2023-10-13T14:14:12;11.52;;;3.97;;
37641;SDS011;23486;51.956;5.888;2023-10-13T14:16:49;10.60;;;3.78;;
37641;SDS011;23486;51.956;5.888;2023-10-13T14:19:15;10.23;;;3.25;;
37641;SDS011;23486;51.956;5.888;2023-10-13T14:21:45;9.13;;;3.10;;
37641;SDS011;23486;51.956;5.888;2023-10-13T14:24:18;12.85;;;3.60;;
37641;SDS011;23486;51.956;5.888;2023-10-13T14:26:52;10.43;;;4.10;;
37641;SDS011;23486;51.956;5.888;2023-10-13T14:29:21;10.80;;;3.65;;
37641;SDS011;23486;51.956;5.888;2023-10-13T14:31:51;9.77;;;3.33;;
37641;SDS011;23486;51.956;5.888;2023-10-13T14:34:19;12.25;;;4.18;;
37641;SDS011;23486;51.956;5.888;2023-10-13T14:36:47;10.52;;;3.63;;
37641;SDS011;23486;51.956;5.888;2023-10-13T14:39:13;13.70;;;4.18;;
37641;SDS011;23486;51.956;5.888;2023-10-13T14:41:39;13.65;;;3.63;;
37641;SDS011;23486;51.956;5.888;2023-10-13T14:44:05;10.85;;;3.75;;
37641;SDS011;23486;51.956;5.888;2023-10-13T14:46:32;13.20;;;4.25;;
37641;SDS011;23486;51.956;5.888;2023-10-13T14:49:01;12.63;;;3.72;;
37641;SDS011;23486;51.956;5.888;2023-10-13T14:51:27;8.32;;;3.67;;
37641;SDS011;23486;51.956;5.888;2023-10-13T14:53:53;9.77;;;3.67;;
37641;SDS011;23486;51.956;5.888;2023-10-13T14:56:21;10.65;;;3.65;;
37641;SDS011;23486;51.956;5.888;2023-10-13T14:58:51;10.10;;;4.03;;
37641;SDS011;23486;51.956;5.888;2023-10-13T15:01:18;8.48;;;3.45;;
37641;SDS011;23486;51.956;5.888;2023-10-13T15:03:45;8.95;;;3.28;;
37641;SDS011;23486;51.956;5.888;2023-10-13T15:06:20;9.02;;;3.97;;
37641;SDS011;23486;51.956;5.888;2023-10-13T15:08:49;11.02;;;3.70;;
37641;SDS011;23486;51.956;5.888;2023-10-13T15:11:16;9.75;;;3.25;;
37641;SDS011;23486;51.956;5.888;2023-10-13T15:13:44;10.77;;;3.20;;
37641;SDS011;23486;51.956;5.888;2023-10-13T15:16:20;10.40;;;3.45;;
37641;SDS011;23486;51.956;5.888;2023-10-13T15:18:47;9.07;;;3.42;;
37641;SDS011;23486;51.956;5.888;2023-10-13T15:21:24;9.15;;;3.17;;
37641;SDS011;23486;51.956;5.888;2023-10-13T15:23:57;11.55;;;3.63;;
37641;SDS011;23486;51.956;5.888;2023-10-13T15:26:31;9.77;;;3.60;;
37641;SDS011;23486;51.956;5.888;2023-10-13T15:29:02;14.57;;;4.65;;
37641;SDS011;23486;51.956;5.888;2023-10-13T15:31:33;9.93;;;4.22;;
37641;SDS011;23486;51.956;5.888;2023-10-13T15:34:00;8.00;;;3.92;;